Chincha Alta, Peru
Current Conditions -  °F | °C
As of 11:00 PM on Wednesday 22 Oct 2014 (Local Time) from SPSO Reporting Station
Overcast Overcast  
Wind Chill: 66°   Ceiling: 1400
Heat Index: 66°   Visibility: 6mi
Dew Point: 61°   Wind: 6mph
Humidity: 83%   Direction: 210°SSW
Pressure: 29.97"   Gusts: NA
Location:  13.42°S, 76.14°W
Report Text: SPSO 230400Z 21005KT 150V300 9999 OVC014 19/16 Q1015 RMK PP000
Loading
Personal Weather Stations






























Interactive Weather Map
Tropical Storm Tracking
New forecast layout! Learn more

10-Day Weather Forecast

Advertisements
Track Severe Weather on mobile